メインページ
METAR-TAF:

METAR-TAF

空港 :

ジュリウス・ニエレレ国際空港

ダルエスサラーム, タンザニア

緯度: 06-52S, 経度: 039-12E, 海抜: 55m

現時点の気象観測

当レポートは58分前の22:00(UTC)に作成
南/南西の風 6kt
気温 23°C
湿度 89%
気圧 1016 hPa
視程10km以上
1,500メートル以下は雲なし、積乱雲なし

METAR: HTDA 182200Z 21006KT CAVOK 23/21 Q1016 NOSIG

時間: 01:58 (22:58 UTC)

予報

当レポートは5時間58分前の17:00(UTC)に作成
予報は18日の 18時(UTC)から 19日の 24時(UTC)まで有効
南/南東の風 10kt
視程10km以上
高度1600ftの雲は散在している

TAF: HTDA 181700Z 1818/1924 16010KT 9999 SCT016

4,000以上の空港の気象観測と天気予報(METAR報とTAF報)

利用可能な観測所は地図上に黄色い丸と赤い丸で示す。

丸の上にカーソルを重ねると観測所名を参照できる。

次にクリックすると気象観測と天気予報を参照できる。

マップの切り替え:黒色「×」印の緑ボタンをクリックして拡大、「-」印の緑ボタンをクリックして縮小、緑色の三角印をクリックして隣りの地図に切り替え


METAR-TAF: